createdAt,value
2023-05-12T00:00:52.551Z,6.80
2023-05-12T00:03:20.618Z,8.07
2023-05-12T00:05:48.735Z,8.00
2023-05-12T00:08:16.881Z,8.23
2023-05-12T00:10:44.923Z,7.30
2023-05-12T00:13:13.028Z,8.50
2023-05-12T00:15:43.022Z,7.70
2023-05-12T00:18:10.983Z,7.10
2023-05-12T00:20:39.440Z,6.18
2023-05-12T00:23:07.521Z,5.50
2023-05-12T00:25:35.658Z,5.47
2023-05-12T00:28:03.662Z,5.40
2023-05-12T00:30:31.757Z,5.30
2023-05-12T00:33:01.117Z,5.30
2023-05-12T00:35:29.309Z,5.72
2023-05-12T00:37:57.388Z,5.95
2023-05-12T00:40:25.492Z,5.35
2023-05-12T00:42:53.505Z,4.47
2023-05-12T00:45:21.962Z,4.47
2023-05-12T00:47:52.660Z,4.15
2023-05-12T00:50:22.740Z,4.05
2023-05-12T00:52:51.343Z,3.45
2023-05-12T00:55:19.711Z,3.70
2023-05-12T00:57:47.738Z,3.30
2023-05-12T01:00:18.086Z,3.33
2023-05-12T01:02:48.370Z,3.30
2023-05-12T01:05:16.697Z,3.53
2023-05-12T01:07:48.322Z,3.17
2023-05-12T01:10:20.825Z,3.30
2023-05-12T01:12:49.477Z,3.03
2023-05-12T01:15:19.698Z,2.42
2023-05-12T01:17:52.889Z,2.55
2023-05-12T01:20:23.909Z,2.60
2023-05-12T01:22:54.428Z,2.38
2023-05-12T01:25:25.441Z,2.50
2023-05-12T01:27:55.405Z,3.70
2023-05-12T01:30:25.221Z,2.65
2023-05-12T01:32:54.094Z,2.50
2023-05-12T01:35:22.343Z,2.50
2023-05-12T01:37:58.174Z,2.60
2023-05-12T01:40:26.677Z,2.03
2023-05-12T01:42:57.421Z,2.15
2023-05-12T01:45:38.671Z,1.77
2023-05-12T01:48:07.094Z,1.80
2023-05-12T01:50:35.887Z,1.50
2023-05-12T01:53:06.755Z,1.55
2023-05-12T01:55:34.803Z,1.55
2023-05-12T01:58:04.722Z,1.40
2023-05-12T02:00:33.340Z,1.60
2023-05-12T02:03:03.599Z,2.03
2023-05-12T02:05:31.783Z,1.80
2023-05-12T02:08:00.420Z,1.58
2023-05-12T02:10:28.760Z,2.22
2023-05-12T02:12:56.849Z,1.80
2023-05-12T02:15:26.927Z,1.92
2023-05-12T02:17:57.193Z,1.80
2023-05-12T02:20:25.865Z,1.80
2023-05-12T02:22:53.880Z,1.73
2023-05-12T02:25:22.566Z,1.60
2023-05-12T02:27:51.258Z,1.98
2023-05-12T02:30:19.681Z,1.67
2023-05-12T02:32:49.248Z,1.90
2023-05-12T02:35:17.452Z,1.95
2023-05-12T02:37:45.503Z,2.65
2023-05-12T02:40:14.182Z,2.75
2023-05-12T02:42:43.522Z,2.90
2023-05-12T02:45:12.526Z,3.00
2023-05-12T02:47:41.082Z,2.83
2023-05-12T02:50:11.300Z,3.00
2023-05-12T02:52:39.400Z,3.00
2023-05-12T02:55:07.963Z,2.80
2023-05-12T02:57:36.105Z,2.80
2023-05-12T03:00:06.159Z,2.38
2023-05-12T03:02:37.396Z,2.63
2023-05-12T03:05:06.375Z,2.72
2023-05-12T03:07:36.023Z,2.80
2023-05-12T03:10:04.300Z,3.63
2023-05-12T03:12:32.652Z,3.38
2023-05-12T03:15:00.984Z,3.58
2023-05-12T03:17:29.225Z,4.10
2023-05-12T03:19:57.339Z,4.03
2023-05-12T03:22:25.580Z,4.40
2023-05-12T03:24:54.925Z,4.00
2023-05-12T03:27:24.438Z,4.78
2023-05-12T03:29:52.733Z,4.90
2023-05-12T03:32:20.867Z,4.40
2023-05-12T03:34:49.450Z,4.93
2023-05-12T03:37:17.637Z,4.30
2023-05-12T03:39:46.250Z,4.75
2023-05-12T03:42:16.754Z,4.38
2023-05-12T03:44:44.826Z,3.90
2023-05-12T03:47:13.677Z,3.42
2023-05-12T03:49:41.760Z,3.80
2023-05-12T03:52:09.841Z,3.05
2023-05-12T03:54:38.971Z,3.58
2023-05-12T03:57:08.221Z,2.97
2023-05-12T03:59:37.741Z,2.97
2023-05-12T04:02:07.677Z,3.15
2023-05-12T04:04:36.968Z,2.75
2023-05-12T04:07:05.337Z,3.00
2023-05-12T04:09:33.342Z,2.58
2023-05-12T04:12:01.295Z,2.78
2023-05-12T04:14:41.690Z,2.70
2023-05-12T04:17:12.010Z,2.40
2023-05-12T04:19:39.945Z,3.00
2023-05-12T04:22:07.980Z,2.45
2023-05-12T04:24:38.188Z,2.38
2023-05-12T04:27:07.217Z,2.33
2023-05-12T04:29:36.985Z,2.60
2023-05-12T04:32:05.636Z,2.28
2023-05-12T04:34:35.505Z,2.00
2023-05-12T04:37:03.808Z,1.90
2023-05-12T04:39:31.873Z,2.00
2023-05-12T04:42:01.875Z,3.30
2023-05-12T04:44:31.781Z,1.88
2023-05-12T04:46:59.865Z,2.08
2023-05-12T04:49:28.005Z,1.80
2023-05-12T04:51:57.389Z,1.95
2023-05-12T04:54:25.570Z,1.50
2023-05-12T04:56:53.803Z,1.58
2023-05-12T04:59:23.365Z,2.53
2023-05-12T05:01:53.768Z,1.90
2023-05-12T05:04:22.182Z,1.98
2023-05-12T05:06:50.232Z,2.00
2023-05-12T05:09:20.230Z,1.95
2023-05-12T05:11:48.671Z,1.80
2023-05-12T05:14:16.782Z,2.60
2023-05-12T05:16:45.505Z,1.83
2023-05-12T05:19:21.500Z,2.10
2023-05-12T05:21:53.878Z,2.42
2023-05-12T05:24:23.262Z,2.40
2023-05-12T05:26:51.313Z,2.90
2023-05-12T05:29:19.486Z,2.60
2023-05-12T05:31:47.890Z,2.20
2023-05-12T05:34:16.478Z,2.80
2023-05-12T05:36:44.705Z,2.60
2023-05-12T05:39:12.761Z,2.28
2023-05-12T05:41:42.232Z,3.00
2023-05-12T05:44:10.269Z,2.50
2023-05-12T05:46:38.595Z,4.50
2023-05-12T05:49:06.763Z,3.05
2023-05-12T05:51:34.872Z,2.80
2023-05-12T05:54:02.873Z,2.30
2023-05-12T05:56:32.722Z,2.75
2023-05-12T05:59:03.168Z,2.95
2023-05-12T06:01:31.274Z,2.42
2023-05-12T06:03:59.790Z,2.70
2023-05-12T06:06:27.904Z,2.72
2023-05-12T06:08:56.131Z,2.83
2023-05-12T06:11:24.388Z,3.70
2023-05-12T06:13:52.646Z,3.35
2023-05-12T06:16:22.218Z,3.00
2023-05-12T06:18:50.285Z,2.95
2023-05-12T06:21:18.984Z,3.30
2023-05-12T06:23:47.855Z,3.15
2023-05-12T06:26:16.318Z,3.08
2023-05-12T06:28:44.277Z,3.53
2023-05-12T06:31:12.371Z,3.67
2023-05-12T06:33:42.171Z,3.00
2023-05-12T06:36:12.296Z,2.55
2023-05-12T06:38:40.588Z,2.90
2023-05-12T06:41:08.661Z,2.72
2023-05-12T06:43:36.740Z,3.17
2023-05-12T06:46:05.096Z,4.47
2023-05-12T06:48:33.218Z,2.60
2023-05-12T06:51:02.642Z,2.53
2023-05-12T06:53:30.721Z,2.40
2023-05-12T06:55:59.137Z,2.60
2023-05-12T06:58:27.148Z,3.33
2023-05-12T07:00:55.137Z,2.60
2023-05-12T07:03:23.364Z,2.60
2023-05-12T07:05:52.138Z,2.00
2023-05-12T07:08:21.481Z,3.30
2023-05-12T07:10:49.556Z,1.90
2023-05-12T07:13:17.627Z,2.00
2023-05-12T07:15:45.668Z,1.98
2023-05-12T07:18:13.732Z,1.83
2023-05-12T07:20:41.728Z,1.80
2023-05-12T07:23:10.380Z,1.75
2023-05-12T07:25:40.330Z,2.10
2023-05-12T07:28:08.358Z,1.90
2023-05-12T07:30:37.631Z,1.90
2023-05-12T07:33:05.771Z,1.83
2023-05-12T07:35:33.773Z,2.33
2023-05-12T07:38:03.267Z,2.22
2023-05-12T07:40:31.440Z,1.80
2023-05-12T07:43:00.865Z,1.65
2023-05-12T07:45:28.858Z,1.90
2023-05-12T07:47:56.928Z,1.67
2023-05-12T07:50:25.032Z,1.60
2023-05-12T07:52:54.425Z,1.80
2023-05-12T07:55:23.862Z,1.60
2023-05-12T07:57:52.008Z,1.70
2023-05-12T08:00:22.034Z,1.80
2023-05-12T08:02:50.197Z,1.95
2023-05-12T08:05:18.735Z,2.10
2023-05-12T08:07:47.234Z,2.35
2023-05-12T08:10:15.348Z,2.40
2023-05-12T08:12:43.860Z,1.70
2023-05-12T08:15:12.481Z,2.10
2023-05-12T08:17:41.961Z,1.80
2023-05-12T08:20:10.928Z,2.15
2023-05-12T08:22:39.892Z,2.08
2023-05-12T08:25:11.658Z,2.00
2023-05-12T08:27:40.562Z,1.95
2023-05-12T08:30:09.390Z,3.72
2023-05-12T08:32:37.744Z,2.40
2023-05-12T08:35:08.016Z,2.30
2023-05-12T08:37:36.118Z,1.88
2023-05-12T08:40:05.208Z,2.00
2023-05-12T08:42:44.443Z,1.92
2023-05-12T08:45:13.116Z,2.17
2023-05-12T08:47:43.610Z,1.95
2023-05-12T08:50:15.287Z,1.80
2023-05-12T08:52:43.614Z,2.30
2023-05-12T08:55:13.345Z,2.00
2023-05-12T08:57:45.391Z,1.90
2023-05-12T09:00:18.317Z,1.90
2023-05-12T09:02:52.717Z,1.80
2023-05-12T09:05:23.460Z,2.72
2023-05-12T09:07:52.949Z,2.00
2023-05-12T09:10:34.485Z,2.10
2023-05-12T09:13:05.767Z,2.05
2023-05-12T09:15:37.371Z,2.10
2023-05-12T09:18:05.879Z,2.13
2023-05-12T09:20:35.528Z,2.08
2023-05-12T09:23:14.522Z,1.40
2023-05-12T09:25:42.633Z,1.92
2023-05-12T09:28:10.690Z,1.70
2023-05-12T09:30:42.127Z,2.10
2023-05-12T09:33:11.159Z,1.70
2023-05-12T09:35:41.764Z,1.60
2023-05-12T09:38:11.069Z,1.92
2023-05-12T09:40:39.658Z,1.90
2023-05-12T09:43:08.959Z,1.60
2023-05-12T09:45:38.906Z,4.63
2023-05-12T09:48:11.967Z,1.45
2023-05-12T09:50:51.461Z,2.38
2023-05-12T09:53:22.883Z,3.45
2023-05-12T09:55:50.992Z,1.90
2023-05-12T09:58:20.535Z,1.65
2023-05-12T10:03:22.190Z,2.85
2023-05-12T10:05:58.590Z,2.05
2023-05-12T10:08:35.106Z,1.92
2023-05-12T10:11:05.764Z,2.10
2023-05-12T10:13:34.872Z,2.13
2023-05-12T10:16:03.875Z,1.95
2023-05-12T10:18:34.402Z,1.73
2023-05-12T10:21:04.520Z,1.88
2023-05-12T10:23:32.920Z,1.83
2023-05-12T10:26:03.389Z,2.05
2023-05-12T10:28:31.383Z,2.13
2023-05-12T10:31:00.293Z,2.50
2023-05-12T10:33:28.523Z,3.25
2023-05-12T10:35:57.127Z,2.22
2023-05-12T10:38:26.765Z,2.38
2023-05-12T10:40:58.195Z,2.13
2023-05-12T10:43:27.888Z,2.20
2023-05-12T10:46:10.221Z,2.10
2023-05-12T10:48:52.288Z,2.20
2023-05-12T10:51:22.645Z,2.78
2023-05-12T10:53:58.578Z,3.45
2023-05-12T10:56:28.848Z,5.75
2023-05-12T10:59:13.211Z,2.28
2023-05-12T11:01:43.119Z,2.22
2023-05-12T11:04:14.132Z,2.50
2023-05-12T11:06:43.459Z,2.35
2023-05-12T11:09:15.449Z,2.10
2023-05-12T11:11:45.761Z,2.40
2023-05-12T11:14:14.296Z,4.00
2023-05-12T11:16:46.126Z,2.30
2023-05-12T11:19:14.271Z,3.17
2023-05-12T11:21:42.576Z,2.60
2023-05-12T11:24:14.821Z,2.35
2023-05-12T11:26:44.444Z,2.50
2023-05-12T11:29:12.620Z,2.40
2023-05-12T11:31:41.523Z,3.08
2023-05-12T11:34:13.040Z,2.20
2023-05-12T11:36:42.741Z,3.83
2023-05-12T11:39:16.478Z,2.20
2023-05-12T11:41:46.514Z,2.60
2023-05-12T11:44:18.974Z,2.60
2023-05-12T11:46:58.028Z,2.30
2023-05-12T11:49:26.679Z,11.07
2023-05-12T11:51:56.348Z,2.88
2023-05-12T11:54:25.046Z,2.30
2023-05-12T11:56:55.621Z,2.30
2023-05-12T11:59:29.640Z,2.08
2023-05-12T12:01:58.591Z,2.20
2023-05-12T12:04:34.418Z,3.22
2023-05-12T12:07:02.707Z,2.78
2023-05-12T12:09:36.367Z,2.75
2023-05-12T12:12:07.693Z,4.20
2023-05-12T12:14:37.979Z,6.85
2023-05-12T12:17:06.376Z,2.58
2023-05-12T12:19:34.370Z,2.65
2023-05-12T12:22:02.429Z,2.40
2023-05-12T12:24:31.074Z,2.38
2023-05-12T12:26:59.280Z,3.00
2023-05-12T12:29:28.717Z,3.88
2023-05-12T12:31:57.212Z,3.10
2023-05-12T12:34:25.394Z,2.40
2023-05-12T12:36:53.596Z,3.08
2023-05-12T12:39:23.108Z,4.30
2023-05-12T12:41:51.467Z,4.07
2023-05-12T12:44:19.484Z,3.65
2023-05-12T12:46:48.964Z,3.53
2023-05-12T12:49:16.998Z,3.53
2023-05-12T12:51:46.781Z,4.90
2023-05-12T12:54:15.910Z,4.20
2023-05-12T12:56:44.709Z,3.47
2023-05-12T12:59:12.950Z,3.10
2023-05-12T13:01:41.030Z,3.40
2023-05-12T13:04:10.503Z,3.30
2023-05-12T13:06:38.546Z,2.50
2023-05-12T13:09:06.555Z,2.05
2023-05-12T13:11:34.669Z,3.10
2023-05-12T13:14:04.444Z,2.80
2023-05-12T13:16:32.648Z,2.65
2023-05-12T13:19:01.016Z,2.55
2023-05-12T13:21:30.606Z,3.30
2023-05-12T13:23:59.104Z,2.55
2023-05-12T13:26:27.297Z,3.33
2023-05-12T13:28:55.344Z,2.20
2023-05-12T13:31:23.441Z,2.60
2023-05-12T13:33:51.528Z,2.60
2023-05-12T13:36:19.536Z,2.40
2023-05-12T13:38:48.932Z,2.30
2023-05-12T13:41:17.121Z,2.42
2023-05-12T13:43:45.152Z,2.53
2023-05-12T13:46:13.339Z,2.25
2023-05-12T13:48:41.914Z,2.17
2023-05-12T13:51:10.072Z,2.20
2023-05-12T13:53:39.602Z,2.08
2023-05-12T13:56:17.493Z,7.07
2023-05-12T13:58:45.800Z,4.05
2023-05-12T14:01:13.979Z,2.40
2023-05-12T14:03:42.799Z,2.38
2023-05-12T14:06:12.066Z,2.40
2023-05-12T14:08:41.527Z,2.38
2023-05-12T14:11:10.098Z,2.30
2023-05-12T14:13:39.441Z,2.50
2023-05-12T14:16:08.217Z,2.70
2023-05-12T14:18:36.425Z,2.72
2023-05-12T14:21:05.775Z,2.70
2023-05-12T14:23:33.800Z,3.78
2023-05-12T14:26:03.587Z,2.78
2023-05-12T14:28:31.676Z,3.10
2023-05-12T14:31:01.358Z,2.50
2023-05-12T14:33:29.362Z,2.60
2023-05-12T14:36:06.425Z,2.53
2023-05-12T14:38:35.791Z,2.08
2023-05-12T14:41:03.939Z,2.92
2023-05-12T14:43:32.386Z,2.55
2023-05-12T14:46:02.230Z,3.10
2023-05-12T14:48:30.473Z,2.08
2023-05-12T14:50:58.706Z,2.13
2023-05-12T14:53:26.817Z,2.08
2023-05-12T14:55:54.866Z,2.30
2023-05-12T14:58:23.990Z,1.98
2023-05-12T15:00:52.483Z,1.85
2023-05-12T15:03:22.090Z,1.88
2023-05-12T15:08:21.594Z,1.85
2023-05-12T15:10:49.980Z,1.55
2023-05-12T15:13:19.922Z,2.30
2023-05-12T15:15:47.899Z,3.03
2023-05-12T15:18:16.008Z,2.60
2023-05-12T15:20:45.924Z,3.15
2023-05-12T15:23:14.028Z,2.60
2023-05-12T15:25:42.640Z,3.30
2023-05-12T15:28:10.594Z,3.10
2023-05-12T15:30:38.661Z,3.08
2023-05-12T15:33:07.096Z,3.05
2023-05-12T15:35:35.636Z,3.10
2023-05-12T15:38:04.992Z,3.45
2023-05-12T15:40:32.987Z,3.28
2023-05-12T15:43:01.003Z,3.10
2023-05-12T15:45:29.273Z,3.10
2023-05-12T15:47:57.956Z,3.10
2023-05-12T15:50:26.373Z,3.10
2023-05-12T15:52:54.486Z,3.20
2023-05-12T15:55:24.485Z,3.20
2023-05-12T15:57:53.650Z,3.10
2023-05-12T16:00:22.624Z,3.15
2023-05-12T16:02:50.849Z,2.90
2023-05-12T16:05:19.259Z,2.88
2023-05-12T16:07:48.410Z,3.72
2023-05-12T16:10:17.452Z,3.17
2023-05-12T16:12:48.056Z,3.42
2023-05-12T16:15:16.117Z,3.53
2023-05-12T16:17:44.261Z,3.78
2023-05-12T16:20:15.809Z,3.00
2023-05-12T16:22:44.162Z,3.30
2023-05-12T16:25:12.232Z,3.40
2023-05-12T16:27:40.235Z,3.30
2023-05-12T16:30:13.166Z,3.05
2023-05-12T16:32:41.743Z,3.50
2023-05-12T16:35:10.905Z,3.00
2023-05-12T16:37:38.918Z,3.60
2023-05-12T16:40:09.458Z,3.10
2023-05-12T16:42:37.790Z,3.35
2023-05-12T16:45:06.576Z,3.45
2023-05-12T16:47:36.117Z,3.22
2023-05-12T16:50:04.548Z,2.90
2023-05-12T16:52:32.715Z,3.50
2023-05-12T16:55:00.746Z,3.20
2023-05-12T16:57:28.780Z,3.60
2023-05-12T16:59:56.812Z,3.00
2023-05-12T17:02:24.891Z,6.53
2023-05-12T17:04:54.357Z,3.40
2023-05-12T17:07:23.227Z,3.28
2023-05-12T17:09:51.774Z,3.03
2023-05-12T17:12:19.812Z,3.80
2023-05-12T17:14:59.396Z,4.10
2023-05-12T17:17:31.798Z,4.10
2023-05-12T17:20:01.473Z,4.15
2023-05-12T17:22:30.955Z,3.72
2023-05-12T17:24:59.074Z,3.90
2023-05-12T17:27:27.724Z,3.65
2023-05-12T17:29:56.719Z,3.38
2023-05-12T17:32:24.839Z,3.40
2023-05-12T17:34:52.888Z,3.65
2023-05-12T17:37:22.690Z,3.40
2023-05-12T17:39:51.402Z,3.53
2023-05-12T17:42:19.715Z,4.22
2023-05-12T17:44:47.816Z,3.50
2023-05-12T17:47:15.918Z,3.78
2023-05-12T17:49:44.044Z,3.75
2023-05-12T17:52:12.094Z,4.43
2023-05-12T17:54:41.810Z,3.75
2023-05-12T17:57:09.851Z,4.00
2023-05-12T17:59:37.901Z,3.70
2023-05-12T18:02:06.337Z,3.25
2023-05-12T18:04:34.735Z,2.83
2023-05-12T18:07:02.750Z,3.20
2023-05-12T18:09:30.726Z,3.00
2023-05-12T18:12:01.022Z,3.17
2023-05-12T18:14:30.504Z,3.50
2023-05-12T18:16:58.559Z,3.10
2023-05-12T18:19:27.689Z,3.20
2023-05-12T18:21:56.217Z,3.03
2023-05-12T18:24:24.292Z,3.33
2023-05-12T18:26:52.274Z,3.20
2023-05-12T18:29:21.750Z,3.97
2023-05-12T18:31:49.761Z,3.72
2023-05-12T18:34:17.882Z,4.10
2023-05-12T18:36:45.999Z,4.22
2023-05-12T18:39:14.526Z,3.75
2023-05-12T18:41:43.154Z,4.75
2023-05-12T18:44:11.332Z,4.57
2023-05-12T18:46:40.871Z,4.32
2023-05-12T18:49:10.122Z,4.85
2023-05-12T18:51:38.593Z,4.72
2023-05-12T18:54:06.766Z,4.63
2023-05-12T18:56:34.887Z,4.75
2023-05-12T18:59:02.895Z,4.50
2023-05-12T19:01:31.541Z,3.92
2023-05-12T19:04:00.916Z,4.80
2023-05-12T19:06:29.034Z,4.57
2023-05-12T19:08:56.997Z,4.75
2023-05-12T19:11:25.126Z,4.50
2023-05-12T19:13:53.234Z,4.82
2023-05-12T19:16:23.626Z,4.80
2023-05-12T19:18:52.096Z,4.72
2023-05-12T19:21:21.495Z,4.18
2023-05-12T19:23:49.604Z,4.50
2023-05-12T19:26:17.578Z,4.22
2023-05-12T19:28:45.671Z,5.10
2023-05-12T19:31:13.854Z,5.25
2023-05-12T19:33:41.939Z,4.95
2023-05-12T19:36:11.702Z,4.60
2023-05-12T19:38:43.503Z,5.07
2023-05-12T19:41:11.964Z,4.60
2023-05-12T19:43:39.966Z,4.60
2023-05-12T19:46:07.997Z,4.80
2023-05-12T19:48:36.180Z,4.97
2023-05-12T19:51:04.313Z,4.60
2023-05-12T19:53:32.342Z,5.22
2023-05-12T19:56:01.688Z,4.45
2023-05-12T19:58:29.799Z,5.13
2023-05-12T20:00:57.828Z,5.40
2023-05-12T20:03:26.020Z,4.53
2023-05-12T20:05:54.232Z,5.00
2023-05-12T20:08:22.269Z,5.30
2023-05-12T20:10:50.384Z,5.40
2023-05-12T20:13:19.775Z,5.32
2023-05-12T20:15:47.799Z,5.00
2023-05-12T20:18:16.918Z,4.90
2023-05-12T20:20:45.250Z,4.90
2023-05-12T20:23:13.351Z,5.40
2023-05-12T20:25:41.335Z,5.80
2023-05-12T20:28:11.472Z,5.82
2023-05-12T20:30:41.401Z,6.00
2023-05-12T20:33:09.437Z,5.85
2023-05-12T20:35:37.406Z,5.93
2023-05-12T20:38:05.410Z,5.40
2023-05-12T20:40:33.451Z,5.72
2023-05-12T20:43:01.462Z,5.70
2023-05-12T20:45:29.455Z,5.18
2023-05-12T20:47:58.818Z,5.10
2023-05-12T20:50:28.114Z,5.97
2023-05-12T20:52:56.179Z,5.63
2023-05-12T20:55:25.546Z,5.50
2023-05-12T20:57:53.648Z,6.30
2023-05-12T21:00:22.571Z,5.65
2023-05-12T21:02:52.257Z,5.32
2023-05-12T21:05:22.253Z,6.03
2023-05-12T21:07:50.693Z,5.68
2023-05-12T21:10:19.076Z,5.93
2023-05-12T21:12:47.548Z,5.63
2023-05-12T21:15:15.893Z,5.78
2023-05-12T21:17:44.002Z,5.50
2023-05-12T21:20:13.237Z,6.63
2023-05-12T21:22:42.659Z,6.07
2023-05-12T21:25:11.375Z,6.10
2023-05-12T21:27:41.273Z,5.70
2023-05-12T21:30:10.658Z,6.63
2023-05-12T21:32:39.368Z,6.00
2023-05-12T21:35:08.537Z,6.05
2023-05-12T21:37:36.657Z,5.28
2023-05-12T21:40:07.245Z,5.93
2023-05-12T21:42:35.629Z,5.93
2023-05-12T21:45:03.649Z,6.20
2023-05-12T21:47:31.832Z,6.30
2023-05-12T21:50:00.005Z,6.03
2023-05-12T21:52:27.999Z,5.97
2023-05-12T21:54:56.004Z,6.03
2023-05-12T21:57:25.415Z,6.05
2023-05-12T21:59:53.467Z,6.13
2023-05-12T22:02:21.606Z,6.25
2023-05-12T22:04:49.608Z,5.97
2023-05-12T22:07:17.939Z,5.82
2023-05-12T22:09:46.034Z,6.10
2023-05-12T22:12:17.474Z,6.70
2023-05-12T22:14:46.825Z,6.70
2023-05-12T22:17:14.933Z,6.97
2023-05-12T22:19:43.196Z,6.43
2023-05-12T22:22:11.276Z,6.93
2023-05-12T22:24:39.240Z,6.50
2023-05-12T22:27:07.725Z,6.22
2023-05-12T22:29:35.993Z,6.35
2023-05-12T22:32:05.916Z,6.97
2023-05-12T22:34:34.009Z,6.75
2023-05-12T22:37:04.316Z,5.78
2023-05-12T22:39:33.349Z,5.97
2023-05-12T22:42:04.594Z,6.35
2023-05-12T22:44:32.891Z,6.32
2023-05-12T22:47:01.088Z,6.75
2023-05-12T22:49:30.764Z,5.70
2023-05-12T22:52:00.236Z,5.97
2023-05-12T22:54:28.530Z,5.47
2023-05-12T22:56:56.554Z,6.03
2023-05-12T22:59:24.668Z,5.95
2023-05-12T23:01:52.762Z,6.03
2023-05-12T23:04:20.841Z,6.13
2023-05-12T23:06:50.451Z,6.00
2023-05-12T23:09:18.485Z,5.80
2023-05-12T23:11:46.571Z,5.97
2023-05-12T23:14:14.582Z,6.10
2023-05-12T23:16:42.596Z,6.40
2023-05-12T23:19:11.026Z,6.00
2023-05-12T23:21:39.246Z,6.30
2023-05-12T23:24:09.289Z,5.75
2023-05-12T23:26:37.295Z,6.20
2023-05-12T23:29:05.358Z,5.80
2023-05-12T23:31:33.417Z,6.18
2023-05-12T23:34:01.458Z,5.90
2023-05-12T23:36:29.564Z,5.80
2023-05-12T23:38:57.567Z,5.82
2023-05-12T23:41:27.072Z,6.13
2023-05-12T23:43:55.021Z,5.80
2023-05-12T23:46:23.080Z,5.95
2023-05-12T23:48:52.025Z,6.60
2023-05-12T23:51:20.044Z,6.20
2023-05-12T23:53:48.100Z,6.32
2023-05-12T23:56:16.227Z,6.30
2023-05-12T23:58:46.846Z,5.90
